Time;durP1;ratioP1;P1;durP2;ratioP2;P2;SDS_P1;SDS_P2;PMS_P1;PMS_P2;Temp;Humidity;BMP_temperature;BMP_pressure;BME280_temperature;BME280_humidity;BME280_pressure;Samples;Min_cycle;Max_cycle;Signal;HPM_P1;HPM_P2
2022/09/11 00:00:52;;;;;;;1.27;1.17;;;;;;;17.54;100.00;100214.66;5038465;28;20504;-50
2022/09/11 00:03:21;;;;;;;1.57;0.90;;;;;;;17.55;100.00;100217.28;5037632;28;20517;-50
2022/09/11 00:05:48;;;;;;;0.80;0.70;;;;;;;17.58;100.00;100218.91;5046000;28;20451;-52
2022/09/11 00:08:17;;;;;;;0.80;0.70;;;;;;;17.57;100.00;100220.75;5040733;28;20529;-50
2022/09/11 00:10:47;;;;;;;1.37;1.27;;;;;;;17.87;100.00;100219.91;5043770;28;20456;-50
2022/09/11 00:13:20;;;;;;;1.17;1.00;;;;;;;17.74;100.00;100217.94;5044952;28;20491;-51
2022/09/11 00:15:49;;;;;;;1.30;1.20;;;;;;;17.71;100.00;100215.44;5042532;28;20825;-50
2022/09/11 00:18:20;;;;;;;1.60;0.90;;;;;;;17.69;100.00;100211.13;5038033;28;20461;-50
2022/09/11 00:20:53;;;;;;;2.53;0.93;;;;;;;17.67;100.00;100218.34;5044691;28;20482;-50
2022/09/11 00:23:22;;;;;;;11.13;1.27;;;;;;;17.65;100.00;100231.03;5059758;28;20775;-51
2022/09/11 00:25:49;;;;;;;1.43;0.97;;;;;;;17.58;100.00;100224.28;5031548;28;20509;-50
2022/09/11 00:28:24;;;;;;;1.40;1.30;;;;;;;17.57;100.00;100222.56;5043453;28;20438;-51
2022/09/11 00:30:58;;;;;;;5.37;1.50;;;;;;;17.46;100.00;100237.50;5042073;28;20498;-50
2022/09/11 00:33:26;;;;;;;1.20;0.87;;;;;;;17.59;100.00;100232.28;5032520;28;20470;-50
2022/09/11 00:36:05;;;;;;;10.13;1.87;;;;;;;17.57;100.00;100236.00;5045194;28;20948;-50
2022/09/11 00:38:34;;;;;;;2.13;1.23;;;;;;;17.60;100.00;100231.31;5042372;28;20535;-50
2022/09/11 00:41:02;;;;;;;2.70;1.50;;;;;;;17.72;100.00;100232.44;5038166;28;20451;-50
2022/09/11 00:43:49;;;;;;;6.67;1.70;;;;;;;17.69;100.00;100235.31;5041381;28;20542;-50
2022/09/11 00:46:16;;;;;;;2.80;2.23;;;;;;;17.66;100.00;100247.06;5045212;28;20461;-50
2022/09/11 00:48:48;;;;;;;1.17;1.00;;;;;;;17.96;100.00;100246.28;5042143;28;21026;-50
2022/09/11 00:51:25;;;;;;;10.93;1.80;;;;;;;17.62;100.00;100250.03;5049624;28;20467;-52
2022/09/11 00:53:55;;;;;;;1.90;1.80;;;;;;;17.63;100.00;100249.94;5036512;28;20555;-50
2022/09/11 00:56:26;;;;;;;1.70;1.60;;;;;;;17.80;100.00;100253.50;5041187;28;21050;-50
2022/09/11 00:58:55;;;;;;;2.50;1.63;;;;;;;17.84;100.00;100255.94;5043226;28;20803;-50
2022/09/11 01:01:21;;;;;;;1.43;1.33;;;;;;;17.69;100.00;100262.22;5041123;28;20454;-51
2022/09/11 01:03:48;;;;;;;1.30;1.20;;;;;;;17.66;100.00;100263.19;5036981;28;20516;-51
2022/09/11 01:06:15;;;;;;;1.17;1.07;;;;;;;17.67;100.00;100262.25;5045451;28;20814;-50
2022/09/11 01:08:42;;;;;;;1.30;1.20;;;;;;;17.90;100.00;100265.44;5036194;28;20504;-50
2022/09/11 01:11:46;;;;;;;1.30;1.20;;;;;;;17.76;100.00;100266.25;5039313;28;21024;-50
2022/09/11 01:14:39;;;;;;;1.60;1.50;;;;;;;17.96;100.00;100263.28;5030186;28;20495;-51
2022/09/11 01:17:20;;;;;;;1.30;1.20;;;;;;;17.83;100.00;100256.03;5030253;28;20485;-50
2022/09/11 01:20:13;;;;;;;1.50;1.37;;;;;;;17.84;100.00;100253.25;5043097;28;21020;-50
2022/09/11 01:22:45;;;;;;;2.13;1.47;;;;;;;17.83;100.00;100259.56;5060225;28;20438;-50
2022/09/11 01:25:30;;;;;;;1.77;1.67;;;;;;;17.83;100.00;100254.19;5037192;28;20964;-50
2022/09/11 01:27:59;;;;;;;1.73;1.60;;;;;;;17.86;100.00;100248.63;5043117;28;20526;-51
2022/09/11 01:30:36;;;;;;;1.20;1.07;;;;;;;17.87;100.00;100254.88;5031749;28;20965;-50
2022/09/11 01:33:27;;;;;;;1.73;1.63;;;;;;;17.72;100.00;100254.81;5043008;28;20495;-51
2022/09/11 01:35:56;;;;;;;1.00;1.00;;;;;;;17.68;100.00;100250.59;5035911;28;20533;-51
2022/09/11 01:38:45;;;;;;;2.30;2.20;;;;;;;17.64;100.00;100250.81;5038836;28;20458;-50
2022/09/11 01:41:20;;;;;;;1.70;1.60;;;;;;;17.47;100.00;100246.41;5036252;28;20451;-50
2022/09/11 01:44:02;;;;;;;1.67;1.30;;;;;;;17.53;100.00;100243.34;5036668;28;20505;-50
2022/09/11 01:46:35;;;;;;;2.67;2.47;;;;;;;17.53;100.00;100246.03;5036453;28;20487;-50
2022/09/11 01:49:26;;;;;;;1.47;1.37;;;;;;;17.43;100.00;100243.06;5043930;28;20451;-50
2022/09/11 01:51:57;;;;;;;2.00;1.80;;;;;;;17.34;100.00;100246.25;5042320;28;20520;-50
2022/09/11 01:54:50;;;;;;;4.10;1.43;;;;;;;17.38;100.00;100250.50;5030057;28;20533;-50
2022/09/11 01:57:40;;;;;;;1.47;1.43;;;;;;;17.27;100.00;100254.72;5039105;28;20536;-50
2022/09/11 02:00:10;;;;;;;1.53;1.43;;;;;;;17.23;100.00;100259.41;5035841;28;20804;-50
2022/09/11 02:02:55;;;;;;;1.73;1.53;;;;;;;17.19;100.00;100257.88;5041805;28;20455;-50
2022/09/11 02:05:29;;;;;;;1.57;1.47;;;;;;;17.26;100.00;100261.06;5042249;28;21030;-50
2022/09/11 02:08:18;;;;;;;1.53;1.33;;;;;;;17.33;100.00;100257.97;5043319;28;20887;-50
2022/09/11 02:11:02;;;;;;;11.40;2.80;;;;;;;17.27;100.00;100262.78;5029334;28;20460;-50
2022/09/11 02:13:39;;;;;;;2.70;2.50;;;;;;;17.31;100.00;100270.63;5042825;28;20517;-51
2022/09/11 02:16:12;;;;;;;1.90;1.57;;;;;;;17.37;100.00;100272.06;5039976;28;20450;-51
2022/09/11 02:19:00;;;;;;;2.20;2.10;;;;;;;17.66;100.00;100273.94;5042508;28;20936;-51
2022/09/11 02:21:27;;;;;;;1.53;1.43;;;;;;;17.57;100.00;100273.63;5039186;28;20504;-50
2022/09/11 02:23:54;;;;;;;2.03;1.70;;;;;;;17.63;100.00;100271.44;5049143;28;20440;-50
2022/09/11 02:26:24;;;;;;;1.90;1.80;;;;;;;17.47;100.00;100276.84;5042571;28;20528;-51
2022/09/11 02:28:52;;;;;;;3.83;2.70;;;;;;;17.42;100.00;100278.06;5029356;28;20444;-50
2022/09/11 02:31:19;;;;;;;2.50;2.30;;;;;;;17.50;100.00;100286.53;5042010;28;20455;-50
2022/09/11 02:33:47;;;;;;;2.87;2.67;;;;;;;17.56;100.00;100286.22;5040055;28;20556;-50
2022/09/11 02:36:31;;;;;;;1.80;1.70;;;;;;;17.64;100.00;100294.69;5031863;28;20467;-51
2022/09/11 02:39:33;;;;;;;1.70;1.60;;;;;;;17.65;100.00;100295.56;5042207;28;20455;-50
2022/09/11 02:42:14;;;;;;;2.10;1.90;;;;;;;17.61;100.00;100299.38;5041079;28;20500;-50
2022/09/11 02:44:53;;;;;;;1.53;1.43;;;;;;;17.65;100.00;100306.31;5037003;28;20963;-50
2022/09/11 02:47:42;;;;;;;2.70;2.50;;;;;;;17.61;100.00;100307.44;5035580;28;20596;-51
2022/09/11 02:50:40;;;;;;;1.73;1.63;;;;;;;17.43;100.00;100309.38;5036477;28;20456;-50
2022/09/11 02:53:16;;;;;;;2.33;2.20;;;;;;;17.36;100.00;100313.34;5028431;28;20863;-51
2022/09/11 02:55:55;;;;;;;2.40;2.30;;;;;;;17.42;100.00;100315.69;5042399;28;20421;-49
2022/09/11 02:58:26;;;;;;;8.93;2.17;;;;;;;17.21;100.00;100317.75;5042601;28;20459;-51
2022/09/11 03:00:57;;;;;;;7.53;2.70;;;;;;;17.13;100.00;100319.97;5028709;28;20448;-51
2022/09/11 03:03:24;;;;;;;2.13;1.50;;;;;;;17.04;100.00;100323.19;5042202;28;20537;-51
2022/09/11 03:05:50;;;;;;;3.53;2.10;;;;;;;17.08;100.00;100328.31;5033838;28;20482;-50
2022/09/11 03:08:17;;;;;;;2.43;2.33;;;;;;;17.04;100.00;100325.88;5032581;28;20434;-50
2022/09/11 03:10:45;;;;;;;2.53;2.33;;;;;;;17.26;100.00;100326.41;5040654;28;20502;-50
2022/09/11 03:13:13;;;;;;;2.37;2.27;;;;;;;17.10;100.00;100322.84;5041995;28;20508;-51
2022/09/11 03:15:43;;;;;;;6.03;2.13;;;;;;;17.06;100.00;100327.53;5036959;28;20458;-53
2022/09/11 03:18:12;;;;;;;2.90;2.70;;;;;;;17.12;100.00;100321.81;5032486;28;20467;-50
2022/09/11 03:20:39;;;;;;;2.80;2.60;;;;;;;17.55;100.00;100321.25;5043381;28;20510;-50
2022/09/11 03:23:07;;;;;;;2.70;2.50;;;;;;;17.56;100.00;100317.59;5062081;28;20482;-50
2022/09/11 03:25:33;;;;;;;10.20;2.93;;;;;;;17.19;100.00;100319.66;5042591;28;20480;-50
2022/09/11 03:27:59;;;;;;;2.93;2.77;;;;;;;17.36;100.00;100314.22;5046632;28;20506;-50
2022/09/11 03:30:26;;;;;;;1.93;1.83;;;;;;;17.52;100.00;100314.19;5042030;28;20455;-50
2022/09/11 03:32:53;;;;;;;2.60;2.50;;;;;;;17.32;100.00;100328.78;5047800;28;20498;-50
2022/09/11 03:35:20;;;;;;;7.23;2.70;;;;;;;17.44;100.00;100330.78;5042550;28;20490;-50
2022/09/11 03:37:46;;;;;;;5.17;2.70;;;;;;;17.36;100.00;100330.31;5047984;28;20480;-50
2022/09/11 03:40:12;;;;;;;2.03;1.80;;;;;;;17.70;100.00;100333.84;5033705;28;20455;-50
2022/09/11 03:42:39;;;;;;;3.00;2.70;;;;;;;17.31;100.00;100337.78;5045089;28;20953;-51
2022/09/11 03:45:05;;;;;;;3.00;2.77;;;;;;;17.65;100.00;100335.88;5041816;28;20883;-52
2022/09/11 03:47:32;;;;;;;13.80;2.47;;;;;;;17.33;100.00;100335.88;5038411;28;20486;-50
2022/09/11 03:49:58;;;;;;;6.60;3.43;;;;;;;17.06;100.00;100330.22;5042030;28;20483;-51
2022/09/11 03:52:24;;;;;;;4.43;4.23;;;;;;;17.15;100.00;100326.16;5045038;28;20434;-50
2022/09/11 03:54:51;;;;;;;3.67;2.90;;;;;;;17.17;100.00;100318.88;5041581;28;20473;-50
2022/09/11 03:57:17;;;;;;;3.50;3.30;;;;;;;16.98;100.00;100324.38;5038621;28;20528;-50
2022/09/11 03:59:43;;;;;;;2.53;2.43;;;;;;;17.25;100.00;100331.88;5040921;28;20509;-49
2022/09/11 04:02:10;;;;;;;2.70;2.60;;;;;;;17.28;100.00;100337.97;5045194;28;20455;-51
2022/09/11 04:04:36;;;;;;;2.80;2.60;;;;;;;17.16;100.00;100342.19;5042809;28;20534;-50
2022/09/11 04:07:03;;;;;;;3.13;2.93;;;;;;;17.01;100.00;100342.16;5038958;28;20474;-51
2022/09/11 04:09:30;;;;;;;2.70;2.50;;;;;;;16.94;100.00;100341.63;5040372;28;20452;-50
2022/09/11 04:11:57;;;;;;;3.57;3.27;;;;;;;16.86;100.00;100347.41;5045272;28;20815;-50
2022/09/11 04:14:23;;;;;;;4.33;4.00;;;;;;;16.93;100.00;100341.69;5041968;28;20474;-51
2022/09/11 04:16:49;;;;;;;3.23;3.03;;;;;;;16.86;100.00;100344.72;5038084;28;20885;-50
2022/09/11 04:19:17;;;;;;;9.93;3.63;;;;;;;16.75;100.00;100349.81;5040463;28;20459;-51
2022/09/11 04:21:43;;;;;;;3.03;2.53;;;;;;;16.68;100.00;100353.75;5052803;28;20457;-50
2022/09/11 04:24:10;;;;;;;3.33;3.17;;;;;;;16.62;100.00;100358.53;5046732;28;20478;-51
2022/09/11 04:26:36;;;;;;;5.13;2.93;;;;;;;16.58;100.00;100352.44;5047507;28;20912;-50
2022/09/11 04:29:03;;;;;;;4.00;2.53;;;;;;;16.00;100.00;100358.13;5037647;28;20452;-49
2022/09/11 04:31:29;;;;;;;3.90;2.70;;;;;;;16.04;100.00;100357.03;5044330;28;20456;-50
2022/09/11 04:33:56;;;;;;;4.20;3.90;;;;;;;16.23;100.00;100360.50;5043523;28;20525;-50
2022/09/11 04:36:25;;;;;;;3.40;3.00;;;;;;;16.36;100.00;100355.41;5038144;28;20565;-50
2022/09/11 04:38:57;;;;;;;2.70;2.60;;;;;;;16.23;100.00;100352.47;5037580;28;20456;-50
2022/09/11 04:41:24;;;;;;;2.30;2.20;;;;;;;16.50;100.00;100363.59;5030644;28;20948;-49
2022/09/11 04:43:55;;;;;;;2.90;2.67;;;;;;;16.44;100.00;100363.91;5044435;28;20889;-51
2022/09/11 04:46:28;;;;;;;18.33;4.40;;;;;;;16.34;100.00;100369.84;5039852;28;20490;-51
2022/09/11 04:48:59;;;;;;;2.37;2.23;;;;;;;16.54;100.00;100370.53;5037355;28;20474;-50
2022/09/11 04:51:29;;;;;;;3.03;2.83;;;;;;;16.39;100.00;100360.59;5040892;28;20832;-50
2022/09/11 04:53:57;;;;;;;3.70;3.50;;;;;;;16.46;100.00;100371.91;5046734;28;20536;-50
2022/09/11 04:56:26;;;;;;;6.40;3.90;;;;;;;16.47;100.00;100376.31;5040475;28;20577;-50
2022/09/11 04:58:55;;;;;;;2.83;2.70;;;;;;;16.40;100.00;100375.75;5044073;28;20514;-50
2022/09/11 05:01:23;;;;;;;9.00;3.47;;;;;;;16.35;100.00;100376.94;5042078;28;20458;-50
2022/09/11 05:03:49;;;;;;;3.90;3.60;;;;;;;16.38;100.00;100383.00;5036993;28;20500;-50
2022/09/11 05:06:16;;;;;;;4.80;2.83;;;;;;;16.45;100.00;100389.81;5044787;28;20997;-50
2022/09/11 05:08:43;;;;;;;3.47;3.27;;;;;;;16.49;100.00;100390.50;5036445;28;20455;-50
2022/09/11 05:11:14;;;;;;;3.30;3.10;;;;;;;16.49;100.00;100390.50;5038544;28;20533;-50
2022/09/11 05:13:42;;;;;;;14.07;3.97;;;;;;;16.51;100.00;100402.91;5043471;28;20492;-50
2022/09/11 05:16:11;;;;;;;3.47;3.27;;;;;;;16.44;100.00;100397.91;5049176;28;20504;-51
2022/09/11 05:18:40;;;;;;;4.03;3.70;;;;;;;16.57;100.00;100399.03;5047714;28;20832;-50
2022/09/11 05:21:11;;;;;;;3.63;3.23;;;;;;;16.68;100.00;100394.00;5040574;28;20451;-51
2022/09/11 05:23:38;;;;;;;6.23;2.47;;;;;;;16.75;100.00;100397.25;5045463;28;20434;-50
2022/09/11 05:26:06;;;;;;;4.13;3.53;;;;;;;16.74;100.00;100393.69;5043417;28;20454;-50
2022/09/11 05:28:33;;;;;;;3.00;2.80;;;;;;;16.78;100.00;100399.78;5042794;28;20451;-50
2022/09/11 05:31:01;;;;;;;3.00;2.80;;;;;;;16.81;100.00;100407.66;5038481;28;20458;-51
2022/09/11 05:33:27;;;;;;;3.73;3.43;;;;;;;16.77;100.00;100408.78;5041559;28;20508;-50
2022/09/11 05:36:01;;;;;;;7.13;2.47;;;;;;;16.79;100.00;100412.25;5042876;28;20490;-50
2022/09/11 05:38:28;;;;;;;11.00;3.57;;;;;;;16.91;100.00;100422.34;5039614;28;20455;-51
2022/09/11 05:40:55;;;;;;;2.90;2.70;;;;;;;17.04;100.00;100418.06;5035602;28;20451;-50
2022/09/11 05:43:21;;;;;;;2.80;2.60;;;;;;;17.06;100.00;100426.03;5049600;28;20798;-50
2022/09/11 05:45:56;;;;;;;4.27;4.07;;;;;;;17.14;100.00;100421.13;5035832;28;20458;-51
2022/09/11 05:48:23;;;;;;;3.40;3.10;;;;;;;17.28;100.00;100423.09;5049327;28;20450;-51
2022/09/11 05:50:55;;;;;;;4.63;3.03;;;;;;;17.24;100.00;100421.50;5035593;28;20454;-51
2022/09/11 05:53:22;;;;;;;7.40;2.50;;;;;;;17.39;100.00;100428.72;5037833;28;20464;-50
2022/09/11 05:55:50;;;;;;;3.73;3.30;;;;;;;17.49;100.00;100432.66;5045327;28;20458;-52
2022/09/11 05:58:17;;;;;;;4.90;4.23;;;;;;;17.52;100.00;100439.66;5044550;28;20447;-51
2022/09/11 06:00:45;;;;;;;2.77;2.57;;;;;;;17.38;100.00;100435.03;5042862;28;20964;-52
2022/09/11 06:03:16;;;;;;;3.77;3.47;;;;;;;17.45;100.00;100439.16;5041394;28;20455;-51
2022/09/11 06:05:42;;;;;;;8.63;2.83;;;;;;;17.49;100.00;100448.78;5035874;28;20475;-52
2022/09/11 06:08:10;;;;;;;4.50;3.10;;;;;;;17.52;100.00;100461.16;5036076;28;20914;-51
2022/09/11 06:10:46;;;;;;;3.37;3.13;;;;;;;17.47;100.00;100456.06;5035950;28;20512;-51
2022/09/11 06:13:16;;;;;;;10.50;4.13;;;;;;;17.57;100.00;100457.28;5041900;28;20462;-51
2022/09/11 06:15:47;;;;;;;4.27;3.87;;;;;;;17.60;100.00;100461.63;5040267;28;20822;-51
2022/09/11 06:18:15;;;;;;;2.50;2.30;;;;;;;17.70;100.00;100465.59;5042731;28;20519;-51
2022/09/11 06:20:41;;;;;;;3.27;3.00;;;;;;;17.79;100.00;100462.38;5042176;28;20454;-51
2022/09/11 06:23:09;;;;;;;3.30;2.77;;;;;;;17.82;100.00;100466.72;5057036;28;20504;-51
2022/09/11 06:25:36;;;;;;;2.90;2.70;;;;;;;17.81;100.00;100473.03;5038220;28;20768;-51
2022/09/11 06:28:03;;;;;;;2.00;1.90;;;;;;;17.89;100.00;100471.66;5042578;28;20454;-52
2022/09/11 06:30:29;;;;;;;3.00;2.80;;;;;;;17.81;100.00;100470.34;5039998;28;20454;-52
2022/09/11 06:32:56;;;;;;;2.57;2.37;;;;;;;17.89;100.00;100465.44;5034785;28;20462;-51
2022/09/11 06:35:22;;;;;;;3.13;2.93;;;;;;;17.83;100.00;100465.78;5037788;28;20491;-52
2022/09/11 06:37:49;;;;;;;2.30;2.20;;;;;;;17.88;100.00;100474.44;5034084;28;20475;-51
2022/09/11 06:40:16;;;;;;;3.03;2.63;;;;;;;17.92;100.00;100479.56;5037551;28;20851;-52
2022/09/11 06:42:43;;;;;;;3.60;3.40;;;;;;;17.99;100.00;100472.91;5043957;28;20513;-51
2022/09/11 06:45:09;;;;;;;16.77;11.03;;;;;;;18.09;100.00;100469.66;5039834;28;20459;-52
2022/09/11 06:47:36;;;;;;;4.03;3.60;;;;;;;18.08;100.00;100481.38;5048394;28;20486;-51
2022/09/11 06:50:02;;;;;;;4.10;2.50;;;;;;;18.20;100.00;100480.69;5045396;28;20433;-51
2022/09/11 06:52:33;;;;;;;4.87;4.10;;;;;;;18.20;100.00;100486.06;5042498;28;20863;-51
2022/09/11 06:55:00;;;;;;;3.53;3.33;;;;;;;18.20;100.00;100494.16;5047434;28;20486;-51
2022/09/11 06:57:27;;;;;;;9.73;2.70;;;;;;;18.19;100.00;100493.28;5035308;28;20878;-50
2022/09/11 06:59:53;;;;;;;2.73;2.53;;;;;;;18.30;100.00;100492.69;5044979;28;20516;-51
2022/09/11 07:02:20;;;;;;;9.27;2.13;;;;;;;18.23;100.00;100496.69;5039031;28;20421;-50
2022/09/11 07:04:47;;;;;;;2.20;2.00;;;;;;;18.48;100.00;100494.31;5046206;28;20501;-51
2022/09/11 07:07:13;;;;;;;4.33;2.47;;;;;;;18.48;100.00;100499.69;5042740;28;20867;-50
2022/09/11 07:09:39;;;;;;;5.43;2.83;;;;;;;18.37;100.00;100495.91;5042438;28;20883;-50
2022/09/11 07:12:06;;;;;;;3.53;3.33;;;;;;;18.30;100.00;100498.06;5049336;28;20811;-51
2022/09/11 07:14:33;;;;;;;3.63;3.43;;;;;;;18.27;100.00;100506.31;5048659;28;20486;-51
2022/09/11 07:17:00;;;;;;;5.23;3.80;;;;;;;18.24;100.00;100493.03;5038720;28;20449;-51
2022/09/11 07:19:26;;;;;;;3.50;3.30;;;;;;;18.29;100.00;100497.19;5048468;28;20798;-51
2022/09/11 07:21:52;;;;;;;3.60;3.40;;;;;;;18.23;100.00;100492.19;5055938;28;20831;-51
2022/09/11 07:24:19;;;;;;;4.73;3.17;;;;;;;18.24;100.00;100493.03;5043142;28;20548;-50
2022/09/11 07:26:45;;;;;;;7.33;3.53;;;;;;;18.17;100.00;100499.72;5036983;28;21337;-51
2022/09/11 07:29:12;;;;;;;2.70;2.50;;;;;;;18.21;100.00;100494.06;5036233;28;20481;-51
2022/09/11 07:31:38;;;;;;;3.77;3.47;;;;;;;18.41;100.00;100495.63;5045142;28;20873;-51
2022/09/11 07:34:05;;;;;;;3.43;3.13;;;;;;;18.35;100.00;100494.13;5051732;28;20504;-51
2022/09/11 07:36:33;;;;;;;2.87;2.77;;;;;;;18.38;100.00;100495.81;5040021;28;20461;-51
2022/09/11 07:39:00;;;;;;;5.87;3.97;;;;;;;18.52;100.00;100493.19;5038035;28;20943;-51
2022/09/11 07:41:27;;;;;;;2.30;2.20;;;;;;;18.65;100.00;100496.06;5045803;28;20447;-51
2022/09/11 07:43:55;;;;;;;3.33;3.13;;;;;;;18.69;100.00;100499.44;5049523;28;20426;-51
2022/09/11 07:46:26;;;;;;;3.90;3.60;;;;;;;18.56;100.00;100500.13;5040291;28;20449;-51
2022/09/11 07:48:54;;;;;;;3.23;3.03;;;;;;;18.59;100.00;100499.94;5047027;28;20797;-51
2022/09/11 07:51:20;;;;;;;4.67;2.17;;;;;;;18.64;100.00;100502.41;5042634;28;20443;-52
2022/09/11 07:53:52;;;;;;;19.63;2.80;;;;;;;18.62;100.00;100513.22;5044707;28;20429;-52
2022/09/11 07:56:22;;;;;;;3.60;3.30;;;;;;;18.92;100.00;100507.03;5041716;28;20499;-52
2022/09/11 07:58:51;;;;;;;10.13;3.10;;;;;;;18.84;100.00;100512.00;5038499;28;20512;-51
2022/09/11 08:01:19;;;;;;;2.87;2.67;;;;;;;19.05;100.00;100507.13;5040557;28;20430;-51
2022/09/11 08:03:48;;;;;;;7.00;3.93;;;;;;;19.06;100.00;100507.06;5044825;28;20478;-52
2022/09/11 08:06:17;;;;;;;3.43;3.20;;;;;;;19.37;100.00;100506.06;5042563;28;20489;-51
2022/09/11 08:08:54;;;;;;;8.43;3.77;;;;;;;19.61;100.00;100514.50;5050793;28;20459;-51
2022/09/11 08:11:22;;;;;;;11.23;3.57;;;;;;;19.83;100.00;100514.00;5049803;28;20963;-51
2022/09/11 08:13:53;;;;;;;2.53;2.43;;;;;;;19.96;100.00;100519.50;5048077;28;20520;-51
2022/09/11 08:16:21;;;;;;;3.20;3.00;;;;;;;19.87;99.90;100528.16;5050514;28;20797;-52
2022/09/11 08:18:48;;;;;;;3.63;3.43;;;;;;;19.82;99.70;100526.63;5050610;28;20465;-51
2022/09/11 08:21:15;;;;;;;4.77;4.03;;;;;;;20.07;100.00;100525.06;5045062;28;20455;-52
2022/09/11 08:23:43;;;;;;;3.17;2.90;;;;;;;19.96;99.56;100530.28;5049493;28;20454;-50
2022/09/11 08:26:30;;;;;;;4.50;3.50;;;;;;;20.00;98.92;100524.59;5050750;28;20473;-50
2022/09/11 08:28:58;;;;;;;3.93;3.63;;;;;;;20.01;98.79;100520.94;5034936;28;20470;-49
2022/09/11 08:31:26;;;;;;;8.03;3.10;;;;;;;20.40;98.37;100524.72;5043896;28;20953;-49
2022/09/11 08:33:54;;;;;;;5.37;4.43;;;;;;;20.70;97.41;100525.44;5043034;28;20429;-50
2022/09/11 08:36:21;;;;;;;4.70;3.37;;;;;;;20.00;97.44;100535.38;5032358;28;20477;-50
2022/09/11 08:38:48;;;;;;;2.93;2.63;;;;;;;20.11;97.86;100529.31;5030823;28;20430;-50
2022/09/11 08:41:33;;;;;;;3.40;3.17;;;;;;;19.94;97.98;100526.81;5044190;28;20452;-51
2022/09/11 08:44:08;;;;;;;3.87;3.57;;;;;;;20.41;97.02;100535.44;5044156;28;20446;-51
2022/09/11 08:46:40;;;;;;;4.00;2.93;;;;;;;20.33;97.85;100526.09;5040393;28;20510;-51
2022/09/11 08:49:18;;;;;;;4.53;3.87;;;;;;;20.45;99.20;100529.88;5037764;28;20482;-50
2022/09/11 08:51:47;;;;;;;5.23;4.83;;;;;;;20.61;97.83;100527.88;5037896;28;20451;-50
2022/09/11 08:54:26;;;;;;;2.67;2.57;;;;;;;20.62;97.48;100532.31;5044088;28;20477;-50
2022/09/11 08:57:19;;;;;;;12.80;3.30;;;;;;;20.66;96.82;100534.69;5043966;28;20473;-49
2022/09/11 09:00:06;;;;;;;3.27;3.07;;;;;;;20.84;95.40;100537.16;5041874;28;20460;-49
2022/09/11 09:02:50;;;;;;;4.60;4.10;;;;;;;20.85;94.86;100538.88;5030334;28;20426;-50
2022/09/11 09:05:35;;;;;;;3.30;3.10;;;;;;;20.62;95.51;100545.81;5043905;28;20464;-49
2022/09/11 09:08:27;;;;;;;3.07;2.87;;;;;;;20.56;95.89;100547.09;5030148;28;20533;-50
2022/09/11 09:11:03;;;;;;;12.43;3.47;;;;;;;20.67;95.28;100547.22;5030258;28;20934;-50
2022/09/11 09:14:04;;;;;;;5.17;4.73;;;;;;;20.54;95.49;100557.09;5043633;28;20855;-49
2022/09/11 09:16:56;;;;;;;2.90;2.70;;;;;;;20.57;95.89;100548.81;5042648;28;20647;-49
2022/09/11 09:19:32;;;;;;;7.87;3.47;;;;;;;20.67;95.51;100541.81;5042984;28;20512;-49
2022/09/11 09:22:37;;;;;;;3.87;3.67;;;;;;;20.65;96.10;100549.16;5048905;28;20420;-50
2022/09/11 09:25:10;;;;;;;3.60;3.40;;;;;;;20.85;95.72;100552.41;5036799;28;20442;-50
2022/09/11 09:28:00;;;;;;;3.63;3.00;;;;;;;21.03;94.45;100556.56;5045262;28;20445;-50
2022/09/11 09:30:29;;;;;;;2.83;2.63;;;;;;;20.91;93.85;100552.84;5040510;28;20421;-50
2022/09/11 09:33:00;;;;;;;8.40;3.53;;;;;;;21.54;92.19;100564.81;5036390;28;20984;-49
2022/09/11 09:35:44;;;;;;;3.33;3.03;;;;;;;21.38;91.37;100556.00;5037708;28;20470;-49
2022/09/11 09:38:17;;;;;;;3.87;3.67;;;;;;;21.39;91.69;100547.81;5029921;28;20450;-49
2022/09/11 09:41:02;;;;;;;3.60;3.40;;;;;;;21.54;91.20;100554.84;5042942;28;20456;-49
2022/09/11 09:43:42;;;;;;;4.87;4.47;;;;;;;21.58;88.72;100555.50;5040724;28;20426;-50
2022/09/11 09:46:28;;;;;;;7.40;3.93;;;;;;;21.70;90.48;100559.19;5035691;28;20445;-50
2022/09/11 09:48:54;;;;;;;3.63;3.13;;;;;;;21.52;92.13;100562.22;5037748;28;20458;-49
2022/09/11 09:51:21;;;;;;;5.50;3.70;;;;;;;21.25;91.56;100561.41;5039407;28;20425;-49
2022/09/11 09:53:52;;;;;;;9.90;3.50;;;;;;;21.55;90.15;100562.00;5045700;28;20433;-50
2022/09/11 09:56:22;;;;;;;6.63;4.43;;;;;;;21.62;88.20;100565.13;5047765;28;20461;-50
2022/09/11 09:59:13;;;;;;;5.20;4.80;;;;;;;21.95;89.00;100559.19;5033164;28;20425;-50
2022/09/11 10:01:43;;;;;;;3.00;2.80;;;;;;;21.66;89.18;100560.38;5034768;28;20491;-50
2022/09/11 10:04:14;;;;;;;23.57;3.93;;;;;;;21.98;88.56;100566.22;5043985;28;20466;-49
2022/09/11 10:06:44;;;;;;;8.50;3.50;;;;;;;22.16;87.78;100549.53;5046790;28;20539;-50
2022/09/11 10:09:28;;;;;;;6.47;3.83;;;;;;;22.09;87.42;100560.94;5040182;28;20429;-49
2022/09/11 10:12:01;;;;;;;4.70;3.00;;;;;;;22.59;85.91;100559.91;5035961;28;20529;-50
2022/09/11 10:14:33;;;;;;;3.97;3.77;;;;;;;22.43;84.28;100560.19;5041744;28;20770;-50
2022/09/11 10:17:29;;;;;;;3.63;3.40;;;;;;;22.35;83.73;100556.31;5045746;28;20561;-50
2022/09/11 10:20:12;;;;;;;6.43;3.70;;;;;;;21.72;86.47;100557.22;5035563;28;20458;-50
2022/09/11 10:22:38;;;;;;;3.40;3.20;;;;;;;21.86;85.96;100552.56;5048494;28;20512;-50
2022/09/11 10:25:18;;;;;;;3.03;2.83;;;;;;;21.69;87.36;100552.03;5035534;28;20429;-51
2022/09/11 10:28:12;;;;;;;3.33;3.00;;;;;;;21.55;86.74;100547.59;5044194;28;20441;-51
2022/09/11 10:30:41;;;;;;;7.20;3.40;;;;;;;21.65;88.83;100551.38;5037196;28;20836;-50
2022/09/11 10:33:27;;;;;;;2.90;2.70;;;;;;;21.35;87.75;100540.00;5048395;28;20530;-50
2022/09/11 10:35:55;;;;;;;2.70;2.30;;;;;;;21.59;88.16;100535.56;5034938;28;20520;-50
2022/09/11 10:38:36;;;;;;;10.50;8.33;;;;;;;21.91;87.16;100529.69;5038234;28;20454;-50
2022/09/11 10:41:12;;;;;;;17.93;3.53;;;;;;;21.74;87.22;100534.50;5020488;28;20526;-50
2022/09/11 10:43:49;;;;;;;3.63;2.33;;;;;;;22.17;86.91;100536.84;5029434;28;20928;-50
2022/09/11 10:46:27;;;;;;;7.43;4.50;;;;;;;22.16;86.35;100535.13;5036321;28;20489;-50
2022/09/11 10:48:57;;;;;;;8.47;2.90;;;;;;;22.21;85.08;100538.38;5046042;28;21011;-50
2022/09/11 10:51:26;;;;;;;5.63;2.50;;;;;;;22.28;83.50;100546.91;5038687;28;20967;-50
2022/09/11 10:54:00;;;;;;;6.20;2.00;;;;;;;22.07;83.33;100538.50;5045719;28;20433;-51
2022/09/11 10:56:27;;;;;;;4.63;4.23;;;;;;;22.31;83.89;100544.81;5039558;28;20501;-50
2022/09/11 10:59:03;;;;;;;3.03;2.23;;;;;;;22.33;84.91;100540.16;5035799;28;20458;-50
2022/09/11 11:01:29;;;;;;;2.80;2.53;;;;;;;22.37;83.80;100540.81;5038235;28;20509;-50
2022/09/11 11:03:56;;;;;;;23.40;17.00;;;;;;;22.29;85.11;100535.09;5042524;28;20538;-50
2022/09/11 11:06:35;;;;;;;6.97;6.33;;;;;;;22.59;81.91;100532.81;5041062;28;20467;-50
2022/09/11 11:09:08;;;;;;;21.23;14.57;;;;;;;22.99;80.70;100530.69;5036791;28;20508;-50
2022/09/11 11:12:00;;;;;;;15.03;3.90;;;;;;;23.33;79.01;100528.13;5038378;28;20516;-50
2022/09/11 11:14:50;;;;;;;3.00;2.80;;;;;;;23.69;77.66;100524.38;5035476;28;20468;-49
2022/09/11 11:17:41;;;;;;;14.97;13.50;;;;;;;23.46;76.96;100518.03;5028390;28;20473;-50
2022/09/11 11:20:25;;;;;;;27.67;22.73;;;;;;;23.97;77.01;100520.28;5041764;28;20455;-50
2022/09/11 11:23:44;;;;;;;6.87;6.20;;;;;;;24.13;75.20;100512.66;5058504;28;20432;-50
2022/09/11 11:26:48;;;;;;;4.80;3.50;;;;;;;24.46;73.95;100510.91;5041320;28;21009;-50
2022/09/11 11:29:27;;;;;;;3.60;3.40;;;;;;;24.50;74.89;100504.19;5028770;28;20443;-50
2022/09/11 11:32:10;;;;;;;3.67;3.40;;;;;;;24.29;75.81;100508.69;5047913;28;20462;-50
2022/09/11 11:35:00;;;;;;;2.30;2.20;;;;;;;24.56;72.96;100521.88;5043674;28;20458;-50
2022/09/11 11:37:33;;;;;;;3.27;2.10;;;;;;;24.59;73.11;100499.88;5042889;28;20483;-51
2022/09/11 11:40:35;;;;;;;2.80;2.17;;;;;;;24.23;73.37;100510.03;5039498;28;20429;-50
2022/09/11 11:43:11;;;;;;;40.57;3.10;;;;;;;24.79;74.03;100512.63;5049127;28;20893;-50
2022/09/11 11:46:01;;;;;;;3.17;2.87;;;;;;;23.87;75.51;100519.34;5020771;28;20469;-50